sensor_id;sensor_type;location;lat;lon;timestamp;P1;durP1;ratioP1;P2;durP2;ratioP2
29662;SDS011;16578;53.266;7.920;2022-11-18T00:00:25;7.15;;;5.68;;
29662;SDS011;16578;53.266;7.920;2022-11-18T00:02:50;8.00;;;6.38;;
29662;SDS011;16578;53.266;7.920;2022-11-18T00:05:16;8.55;;;6.00;;
29662;SDS011;16578;53.266;7.920;2022-11-18T00:07:41;8.68;;;6.45;;
29662;SDS011;16578;53.266;7.920;2022-11-18T00:10:07;8.35;;;5.95;;
29662;SDS011;16578;53.266;7.920;2022-11-18T00:12:32;7.85;;;5.68;;
29662;SDS011;16578;53.266;7.920;2022-11-18T00:15:16;7.13;;;5.50;;
29662;SDS011;16578;53.266;7.920;2022-11-18T00:17:42;7.90;;;5.97;;
29662;SDS011;16578;53.266;7.920;2022-11-18T00:20:07;7.70;;;5.78;;
29662;SDS011;16578;53.266;7.920;2022-11-18T00:22:33;7.18;;;5.63;;
29662;SDS011;16578;53.266;7.920;2022-11-18T00:24:59;7.82;;;5.55;;
29662;SDS011;16578;53.266;7.920;2022-11-18T00:27:24;7.57;;;5.93;;
29662;SDS011;16578;53.266;7.920;2022-11-18T00:29:53;7.35;;;5.75;;
29662;SDS011;16578;53.266;7.920;2022-11-18T00:32:18;8.43;;;5.50;;
29662;SDS011;16578;53.266;7.920;2022-11-18T00:34:44;7.47;;;5.85;;
29662;SDS011;16578;53.266;7.920;2022-11-18T00:37:09;9.60;;;6.25;;
29662;SDS011;16578;53.266;7.920;2022-11-18T00:39:35;7.45;;;5.65;;
29662;SDS011;16578;53.266;7.920;2022-11-18T00:42:00;9.20;;;7.28;;
29662;SDS011;16578;53.266;7.920;2022-11-18T00:44:44;7.75;;;6.22;;
29662;SDS011;16578;53.266;7.920;2022-11-18T00:47:10;9.15;;;6.43;;
29662;SDS011;16578;53.266;7.920;2022-11-18T00:49:35;8.93;;;6.03;;
29662;SDS011;16578;53.266;7.920;2022-11-18T00:52:01;8.93;;;6.38;;
29662;SDS011;16578;53.266;7.920;2022-11-18T00:54:26;9.50;;;6.75;;
29662;SDS011;16578;53.266;7.920;2022-11-18T00:56:52;9.70;;;7.15;;
29662;SDS011;16578;53.266;7.920;2022-11-18T00:59:17;9.88;;;7.30;;
29662;SDS011;16578;53.266;7.920;2022-11-18T01:01:43;8.68;;;6.85;;
29662;SDS011;16578;53.266;7.920;2022-11-18T01:04:08;10.63;;;7.10;;
29662;SDS011;16578;53.266;7.920;2022-11-18T01:06:34;11.55;;;6.95;;
29662;SDS011;16578;53.266;7.920;2022-11-18T01:09:00;10.35;;;6.70;;
29662;SDS011;16578;53.266;7.920;2022-11-18T01:11:25;11.50;;;7.05;;
29662;SDS011;16578;53.266;7.920;2022-11-18T01:14:09;9.57;;;6.18;;
29662;SDS011;16578;53.266;7.920;2022-11-18T01:16:35;10.52;;;6.82;;
29662;SDS011;16578;53.266;7.920;2022-11-18T01:19:00;10.25;;;7.80;;
29662;SDS011;16578;53.266;7.920;2022-11-18T01:21:27;10.85;;;7.75;;
29662;SDS011;16578;53.266;7.920;2022-11-18T01:23:52;9.02;;;7.30;;
29662;SDS011;16578;53.266;7.920;2022-11-18T01:26:18;13.00;;;8.30;;
29662;SDS011;16578;53.266;7.920;2022-11-18T01:28:44;11.23;;;7.50;;
29662;SDS011;16578;53.266;7.920;2022-11-18T01:31:11;9.65;;;7.97;;
29662;SDS011;16578;53.266;7.920;2022-11-18T01:33:38;9.50;;;7.32;;
29662;SDS011;16578;53.266;7.920;2022-11-18T01:36:12;10.52;;;7.65;;
29662;SDS011;16578;53.266;7.920;2022-11-18T01:38:49;10.13;;;7.18;;
29662;SDS011;16578;53.266;7.920;2022-11-18T01:41:15;9.63;;;6.90;;
29662;SDS011;16578;53.266;7.920;2022-11-18T01:43:49;11.23;;;7.13;;
29662;SDS011;16578;53.266;7.920;2022-11-18T01:46:20;10.68;;;7.10;;
29662;SDS011;16578;53.266;7.920;2022-11-18T01:48:48;9.80;;;7.20;;
29662;SDS011;16578;53.266;7.920;2022-11-18T01:51:18;11.23;;;7.30;;
29662;SDS011;16578;53.266;7.920;2022-11-18T01:53:50;9.88;;;8.10;;
29662;SDS011;16578;53.266;7.920;2022-11-18T01:56:25;9.30;;;7.45;;
29662;SDS011;16578;53.266;7.920;2022-11-18T01:58:58;10.43;;;7.93;;
29662;SDS011;16578;53.266;7.920;2022-11-18T02:01:29;9.35;;;7.50;;
29662;SDS011;16578;53.266;7.920;2022-11-18T02:03:54;12.68;;;7.70;;
29662;SDS011;16578;53.266;7.920;2022-11-18T02:06:20;9.88;;;7.13;;
29662;SDS011;16578;53.266;7.920;2022-11-18T02:08:46;12.95;;;7.20;;
29662;SDS011;16578;53.266;7.920;2022-11-18T02:11:13;11.30;;;8.00;;
29662;SDS011;16578;53.266;7.920;2022-11-18T02:13:58;10.27;;;7.68;;
29662;SDS011;16578;53.266;7.920;2022-11-18T02:16:32;10.57;;;8.13;;
29662;SDS011;16578;53.266;7.920;2022-11-18T02:24:26;10.90;;;7.38;;
29662;SDS011;16578;53.266;7.920;2022-11-18T02:30:15;8.70;;;6.50;;
29662;SDS011;16578;53.266;7.920;2022-11-18T02:32:47;7.18;;;5.60;;
29662;SDS011;16578;53.266;7.920;2022-11-18T02:38:07;9.05;;;6.57;;
29662;SDS011;16578;53.266;7.920;2022-11-18T02:43:14;8.23;;;5.60;;
29662;SDS011;16578;53.266;7.920;2022-11-18T02:45:46;8.38;;;5.53;;
29662;SDS011;16578;53.266;7.920;2022-11-18T02:48:16;7.53;;;6.05;;
29662;SDS011;16578;53.266;7.920;2022-11-18T02:50:43;7.35;;;5.50;;
29662;SDS011;16578;53.266;7.920;2022-11-18T02:53:12;7.28;;;5.40;;
29662;SDS011;16578;53.266;7.920;2022-11-18T02:55:40;9.25;;;5.80;;
29662;SDS011;16578;53.266;7.920;2022-11-18T02:58:08;8.40;;;6.60;;
29662;SDS011;16578;53.266;7.920;2022-11-18T03:00:35;9.35;;;5.57;;
29662;SDS011;16578;53.266;7.920;2022-11-18T03:03:00;8.25;;;6.63;;
29662;SDS011;16578;53.266;7.920;2022-11-18T03:05:59;6.40;;;5.07;;
29662;SDS011;16578;53.266;7.920;2022-11-18T03:08:44;8.02;;;5.93;;
29662;SDS011;16578;53.266;7.920;2022-11-18T03:11:23;7.30;;;5.60;;
29662;SDS011;16578;53.266;7.920;2022-11-18T03:14:09;9.30;;;6.10;;
29662;SDS011;16578;53.266;7.920;2022-11-18T03:16:58;7.38;;;5.60;;
29662;SDS011;16578;53.266;7.920;2022-11-18T03:22:27;8.98;;;5.97;;
29662;SDS011;16578;53.266;7.920;2022-11-18T03:30:49;6.55;;;4.85;;
29662;SDS011;16578;53.266;7.920;2022-11-18T03:33:21;8.15;;;5.47;;
29662;SDS011;16578;53.266;7.920;2022-11-18T03:35:52;9.40;;;5.53;;
29662;SDS011;16578;53.266;7.920;2022-11-18T03:38:23;8.43;;;5.57;;
29662;SDS011;16578;53.266;7.920;2022-11-18T03:40:54;7.28;;;6.22;;
29662;SDS011;16578;53.266;7.920;2022-11-18T03:43:24;9.70;;;6.10;;
29662;SDS011;16578;53.266;7.920;2022-11-18T03:45:59;9.15;;;6.18;;
29662;SDS011;16578;53.266;7.920;2022-11-18T03:48:35;8.27;;;5.78;;
29662;SDS011;16578;53.266;7.920;2022-11-18T03:51:05;9.55;;;6.35;;
29662;SDS011;16578;53.266;7.920;2022-11-18T03:53:35;8.70;;;6.00;;
29662;SDS011;16578;53.266;7.920;2022-11-18T03:56:24;10.07;;;5.97;;
29662;SDS011;16578;53.266;7.920;2022-11-18T03:59:02;8.68;;;5.85;;
29662;SDS011;16578;53.266;7.920;2022-11-18T04:01:40;8.90;;;6.32;;
29662;SDS011;16578;53.266;7.920;2022-11-18T04:04:12;9.57;;;5.97;;
29662;SDS011;16578;53.266;7.920;2022-11-18T04:06:41;9.52;;;6.20;;
29662;SDS011;16578;53.266;7.920;2022-11-18T04:09:12;8.13;;;5.85;;
29662;SDS011;16578;53.266;7.920;2022-11-18T04:11:55;7.35;;;6.32;;
29662;SDS011;16578;53.266;7.920;2022-11-18T04:14:26;12.90;;;5.80;;
29662;SDS011;16578;53.266;7.920;2022-11-18T04:16:53;9.45;;;5.72;;
29662;SDS011;16578;53.266;7.920;2022-11-18T04:19:18;10.95;;;6.63;;
29662;SDS011;16578;53.266;7.920;2022-11-18T04:21:45;8.90;;;6.00;;
29662;SDS011;16578;53.266;7.920;2022-11-18T04:24:12;8.23;;;5.70;;
29662;SDS011;16578;53.266;7.920;2022-11-18T04:26:37;9.48;;;6.35;;
29662;SDS011;16578;53.266;7.920;2022-11-18T04:29:03;9.45;;;5.80;;
29662;SDS011;16578;53.266;7.920;2022-11-18T04:31:28;10.05;;;6.40;;
29662;SDS011;16578;53.266;7.920;2022-11-18T04:33:54;9.85;;;6.75;;
29662;SDS011;16578;53.266;7.920;2022-11-18T04:36:20;9.68;;;6.07;;
29662;SDS011;16578;53.266;7.920;2022-11-18T04:38:45;10.07;;;6.68;;
29662;SDS011;16578;53.266;7.920;2022-11-18T04:41:11;10.48;;;7.72;;
29662;SDS011;16578;53.266;7.920;2022-11-18T04:43:36;11.60;;;7.65;;
29662;SDS011;16578;53.266;7.920;2022-11-18T04:46:02;12.75;;;7.65;;
29662;SDS011;16578;53.266;7.920;2022-11-18T04:48:27;13.60;;;8.75;;
29662;SDS011;16578;53.266;7.920;2022-11-18T04:50:55;11.93;;;7.45;;
29662;SDS011;16578;53.266;7.920;2022-11-18T04:53:21;11.75;;;7.90;;
29662;SDS011;16578;53.266;7.920;2022-11-18T04:55:47;14.00;;;7.70;;
29662;SDS011;16578;53.266;7.920;2022-11-18T04:58:12;13.10;;;8.07;;
29662;SDS011;16578;53.266;7.920;2022-11-18T05:00:38;12.75;;;7.82;;
29662;SDS011;16578;53.266;7.920;2022-11-18T05:03:03;15.77;;;7.63;;
29662;SDS011;16578;53.266;7.920;2022-11-18T05:05:29;14.82;;;8.13;;
29662;SDS011;16578;53.266;7.920;2022-11-18T05:07:54;15.07;;;9.88;;
29662;SDS011;16578;53.266;7.920;2022-11-18T05:10:20;14.38;;;9.00;;
29662;SDS011;16578;53.266;7.920;2022-11-18T05:12:45;14.43;;;8.60;;
29662;SDS011;16578;53.266;7.920;2022-11-18T05:15:14;14.95;;;8.38;;
29662;SDS011;16578;53.266;7.920;2022-11-18T05:17:41;13.73;;;7.65;;
29662;SDS011;16578;53.266;7.920;2022-11-18T05:20:07;12.98;;;8.57;;
29662;SDS011;16578;53.266;7.920;2022-11-18T05:22:33;13.52;;;8.35;;
29662;SDS011;16578;53.266;7.920;2022-11-18T05:24:59;16.75;;;10.10;;
29662;SDS011;16578;53.266;7.920;2022-11-18T05:27:24;14.63;;;9.13;;
29662;SDS011;16578;53.266;7.920;2022-11-18T05:29:50;15.88;;;8.65;;
29662;SDS011;16578;53.266;7.920;2022-11-18T05:32:16;16.40;;;9.52;;
29662;SDS011;16578;53.266;7.920;2022-11-18T05:34:42;16.10;;;10.30;;
29662;SDS011;16578;53.266;7.920;2022-11-18T05:37:07;18.42;;;10.18;;
29662;SDS011;16578;53.266;7.920;2022-11-18T05:39:33;16.25;;;10.13;;
29662;SDS011;16578;53.266;7.920;2022-11-18T05:41:59;14.40;;;9.50;;
29662;SDS011;16578;53.266;7.920;2022-11-18T05:44:43;14.98;;;8.88;;
29662;SDS011;16578;53.266;7.920;2022-11-18T05:47:09;15.98;;;9.60;;
29662;SDS011;16578;53.266;7.920;2022-11-18T05:49:35;16.38;;;10.15;;
29662;SDS011;16578;53.266;7.920;2022-11-18T05:52:01;17.00;;;10.20;;
29662;SDS011;16578;53.266;7.920;2022-11-18T05:54:26;15.48;;;9.65;;
29662;SDS011;16578;53.266;7.920;2022-11-18T05:56:52;20.33;;;11.63;;
29662;SDS011;16578;53.266;7.920;2022-11-18T05:59:18;17.50;;;10.07;;
29662;SDS011;16578;53.266;7.920;2022-11-18T06:01:54;21.40;;;10.10;;
29662;SDS011;16578;53.266;7.920;2022-11-18T06:06:49;18.65;;;11.60;;
29662;SDS011;16578;53.266;7.920;2022-11-18T06:09:17;17.55;;;8.77;;
29662;SDS011;16578;53.266;7.920;2022-11-18T06:11:48;19.85;;;9.80;;
29662;SDS011;16578;53.266;7.920;2022-11-18T06:14:21;18.63;;;10.85;;
29662;SDS011;16578;53.266;7.920;2022-11-18T06:16:53;18.80;;;11.90;;
29662;SDS011;16578;53.266;7.920;2022-11-18T06:19:21;20.70;;;11.98;;
29662;SDS011;16578;53.266;7.920;2022-11-18T06:21:47;21.20;;;11.70;;
29662;SDS011;16578;53.266;7.920;2022-11-18T06:24:13;19.80;;;10.43;;
29662;SDS011;16578;53.266;7.920;2022-11-18T06:26:39;18.90;;;11.60;;
29662;SDS011;16578;53.266;7.920;2022-11-18T06:29:05;19.95;;;12.27;;
29662;SDS011;16578;53.266;7.920;2022-11-18T06:31:33;17.70;;;11.57;;
29662;SDS011;16578;53.266;7.920;2022-11-18T06:33:59;17.90;;;11.32;;
29662;SDS011;16578;53.266;7.920;2022-11-18T06:36:25;18.75;;;11.30;;
29662;SDS011;16578;53.266;7.920;2022-11-18T06:38:50;20.42;;;13.10;;
29662;SDS011;16578;53.266;7.920;2022-11-18T06:41:16;17.92;;;10.23;;
29662;SDS011;16578;53.266;7.920;2022-11-18T06:43:41;18.88;;;10.52;;
29662;SDS011;16578;53.266;7.920;2022-11-18T06:46:11;19.98;;;11.45;;
29662;SDS011;16578;53.266;7.920;2022-11-18T06:48:57;19.77;;;10.52;;
29662;SDS011;16578;53.266;7.920;2022-11-18T06:51:24;18.25;;;11.65;;
29662;SDS011;16578;53.266;7.920;2022-11-18T06:53:50;18.80;;;11.73;;
29662;SDS011;16578;53.266;7.920;2022-11-18T06:56:17;16.60;;;10.98;;
29662;SDS011;16578;53.266;7.920;2022-11-18T06:58:44;17.42;;;10.30;;
29662;SDS011;16578;53.266;7.920;2022-11-18T07:03:43;19.05;;;11.48;;
29662;SDS011;16578;53.266;7.920;2022-11-18T07:06:09;20.67;;;11.38;;
29662;SDS011;16578;53.266;7.920;2022-11-18T07:08:37;16.20;;;10.75;;
29662;SDS011;16578;53.266;7.920;2022-11-18T07:11:05;21.27;;;12.52;;
29662;SDS011;16578;53.266;7.920;2022-11-18T07:13:33;19.08;;;10.98;;
29662;SDS011;16578;53.266;7.920;2022-11-18T07:16:03;36.85;;;20.92;;
29662;SDS011;16578;53.266;7.920;2022-11-18T07:18:31;35.35;;;20.27;;
29662;SDS011;16578;53.266;7.920;2022-11-18T07:21:00;34.65;;;20.25;;
29662;SDS011;16578;53.266;7.920;2022-11-18T07:23:28;32.17;;;19.42;;
29662;SDS011;16578;53.266;7.920;2022-11-18T07:25:54;32.10;;;19.27;;
29662;SDS011;16578;53.266;7.920;2022-11-18T07:28:20;27.95;;;16.05;;
29662;SDS011;16578;53.266;7.920;2022-11-18T07:30:45;22.63;;;14.07;;
29662;SDS011;16578;53.266;7.920;2022-11-18T07:33:11;23.02;;;11.73;;
29662;SDS011;16578;53.266;7.920;2022-11-18T07:35:36;21.05;;;13.13;;
29662;SDS011;16578;53.266;7.920;2022-11-18T07:38:02;18.63;;;11.95;;
29662;SDS011;16578;53.266;7.920;2022-11-18T07:40:28;21.67;;;12.15;;
29662;SDS011;16578;53.266;7.920;2022-11-18T07:42:53;21.17;;;13.20;;
29662;SDS011;16578;53.266;7.920;2022-11-18T07:45:19;21.33;;;14.82;;
29662;SDS011;16578;53.266;7.920;2022-11-18T07:47:44;24.10;;;14.80;;
29662;SDS011;16578;53.266;7.920;2022-11-18T07:50:10;22.25;;;12.65;;
29662;SDS011;16578;53.266;7.920;2022-11-18T07:52:35;22.85;;;12.75;;
29662;SDS011;16578;53.266;7.920;2022-11-18T07:55:01;20.52;;;12.15;;
29662;SDS011;16578;53.266;7.920;2022-11-18T07:57:26;18.45;;;12.10;;
29662;SDS011;16578;53.266;7.920;2022-11-18T07:59:52;22.42;;;13.60;;
29662;SDS011;16578;53.266;7.920;2022-11-18T08:02:17;21.25;;;13.70;;
29662;SDS011;16578;53.266;7.920;2022-11-18T08:04:43;24.98;;;16.35;;
29662;SDS011;16578;53.266;7.920;2022-11-18T08:07:09;21.42;;;13.30;;
29662;SDS011;16578;53.266;7.920;2022-11-18T08:09:34;21.73;;;13.10;;
29662;SDS011;16578;53.266;7.920;2022-11-18T08:12:00;20.50;;;13.45;;
29662;SDS011;16578;53.266;7.920;2022-11-18T08:14:26;23.35;;;14.75;;
29662;SDS011;16578;53.266;7.920;2022-11-18T08:16:52;23.00;;;13.65;;
29662;SDS011;16578;53.266;7.920;2022-11-18T08:19:18;20.52;;;13.10;;
29662;SDS011;16578;53.266;7.920;2022-11-18T08:21:44;21.27;;;13.32;;
29662;SDS011;16578;53.266;7.920;2022-11-18T08:24:10;20.70;;;13.75;;
29662;SDS011;16578;53.266;7.920;2022-11-18T08:26:35;24.00;;;14.02;;
29662;SDS011;16578;53.266;7.920;2022-11-18T08:29:01;19.10;;;14.30;;
29662;SDS011;16578;53.266;7.920;2022-11-18T08:31:28;22.38;;;15.18;;
29662;SDS011;16578;53.266;7.920;2022-11-18T08:34:00;24.15;;;13.90;;
29662;SDS011;16578;53.266;7.920;2022-11-18T08:36:32;22.80;;;13.30;;
29662;SDS011;16578;53.266;7.920;2022-11-18T08:39:00;20.95;;;12.98;;
29662;SDS011;16578;53.266;7.920;2022-11-18T08:41:30;22.23;;;13.15;;
29662;SDS011;16578;53.266;7.920;2022-11-18T08:43:58;22.80;;;14.55;;
29662;SDS011;16578;53.266;7.920;2022-11-18T08:46:24;24.40;;;14.93;;
29662;SDS011;16578;53.266;7.920;2022-11-18T08:48:50;19.92;;;13.43;;
29662;SDS011;16578;53.266;7.920;2022-11-18T08:51:16;22.33;;;13.43;;
29662;SDS011;16578;53.266;7.920;2022-11-18T08:53:41;20.80;;;12.43;;
29662;SDS011;16578;53.266;7.920;2022-11-18T08:56:10;24.40;;;12.88;;
29662;SDS011;16578;53.266;7.920;2022-11-18T08:58:39;20.27;;;12.88;;
29662;SDS011;16578;53.266;7.920;2022-11-18T09:01:05;21.40;;;14.35;;
29662;SDS011;16578;53.266;7.920;2022-11-18T09:03:32;21.02;;;15.15;;
29662;SDS011;16578;53.266;7.920;2022-11-18T09:06:07;22.67;;;14.75;;
29662;SDS011;16578;53.266;7.920;2022-11-18T09:08:35;23.98;;;14.75;;
29662;SDS011;16578;53.266;7.920;2022-11-18T09:11:20;21.90;;;13.27;;
29662;SDS011;16578;53.266;7.920;2022-11-18T09:13:47;22.70;;;13.27;;
29662;SDS011;16578;53.266;7.920;2022-11-18T09:16:16;22.00;;;13.73;;
29662;SDS011;16578;53.266;7.920;2022-11-18T09:18:42;22.20;;;13.27;;
29662;SDS011;16578;53.266;7.920;2022-11-18T09:21:08;23.48;;;14.63;;
29662;SDS011;16578;53.266;7.920;2022-11-18T09:23:34;22.27;;;13.40;;
29662;SDS011;16578;53.266;7.920;2022-11-18T09:26:05;23.70;;;15.18;;
29662;SDS011;16578;53.266;7.920;2022-11-18T09:28:33;24.48;;;14.25;;
29662;SDS011;16578;53.266;7.920;2022-11-18T09:31:02;20.48;;;14.55;;
29662;SDS011;16578;53.266;7.920;2022-11-18T09:33:35;24.13;;;15.02;;
29662;SDS011;16578;53.266;7.920;2022-11-18T09:36:05;25.05;;;16.23;;
29662;SDS011;16578;53.266;7.920;2022-11-18T09:38:39;24.38;;;15.20;;
29662;SDS011;16578;53.266;7.920;2022-11-18T09:46:48;20.20;;;12.13;;
29662;SDS011;16578;53.266;7.920;2022-11-18T09:49:32;20.55;;;12.13;;
29662;SDS011;16578;53.266;7.920;2022-11-18T09:52:02;18.83;;;11.70;;
29662;SDS011;16578;53.266;7.920;2022-11-18T09:54:48;16.52;;;9.68;;
29662;SDS011;16578;53.266;7.920;2022-11-18T09:57:22;21.27;;;14.02;;
29662;SDS011;16578;53.266;7.920;2022-11-18T09:59:50;23.20;;;13.10;;
29662;SDS011;16578;53.266;7.920;2022-11-18T10:02:36;21.27;;;12.98;;
29662;SDS011;16578;53.266;7.920;2022-11-18T10:05:16;18.95;;;11.73;;
29662;SDS011;16578;53.266;7.920;2022-11-18T10:07:50;25.23;;;15.20;;
29662;SDS011;16578;53.266;7.920;2022-11-18T10:13:29;27.00;;;15.40;;
29662;SDS011;16578;53.266;7.920;2022-11-18T10:24:44;23.70;;;14.73;;
29662;SDS011;16578;53.266;7.920;2022-11-18T10:27:15;23.27;;;13.43;;
29662;SDS011;16578;53.266;7.920;2022-11-18T10:29:42;25.50;;;16.42;;
29662;SDS011;16578;53.266;7.920;2022-11-18T10:32:12;28.73;;;16.63;;
29662;SDS011;16578;53.266;7.920;2022-11-18T10:34:50;29.60;;;17.67;;
29662;SDS011;16578;53.266;7.920;2022-11-18T10:37:21;33.65;;;19.40;;
29662;SDS011;16578;53.266;7.920;2022-11-18T10:39:54;29.05;;;17.23;;
29662;SDS011;16578;53.266;7.920;2022-11-18T10:42:34;29.30;;;16.42;;
29662;SDS011;16578;53.266;7.920;2022-11-18T10:45:16;28.65;;;15.25;;
29662;SDS011;16578;53.266;7.920;2022-11-18T10:47:55;27.20;;;18.10;;
29662;SDS011;16578;53.266;7.920;2022-11-18T10:50:35;29.10;;;18.98;;
29662;SDS011;16578;53.266;7.920;2022-11-18T10:53:03;30.80;;;18.42;;
29662;SDS011;16578;53.266;7.920;2022-11-18T10:55:30;33.03;;;17.75;;
29662;SDS011;16578;53.266;7.920;2022-11-18T10:57:59;28.35;;;17.02;;
29662;SDS011;16578;53.266;7.920;2022-11-18T11:00:34;32.42;;;19.13;;
29662;SDS011;16578;53.266;7.920;2022-11-18T11:03:19;30.33;;;17.52;;
29662;SDS011;16578;53.266;7.920;2022-11-18T11:17:13;28.15;;;17.00;;
29662;SDS011;16578;53.266;7.920;2022-11-18T11:22:20;28.17;;;16.75;;
29662;SDS011;16578;53.266;7.920;2022-11-18T11:24:47;33.88;;;19.58;;
29662;SDS011;16578;53.266;7.920;2022-11-18T11:32:33;26.73;;;18.02;;
29662;SDS011;16578;53.266;7.920;2022-11-18T11:35:29;30.25;;;19.60;;
29662;SDS011;16578;53.266;7.920;2022-11-18T11:38:05;27.27;;;16.45;;
29662;SDS011;16578;53.266;7.920;2022-11-18T11:40:39;31.52;;;18.80;;
29662;SDS011;16578;53.266;7.920;2022-11-18T11:46:00;29.10;;;18.73;;
29662;SDS011;16578;53.266;7.920;2022-11-18T11:49:06;28.13;;;18.27;;
29662;SDS011;16578;53.266;7.920;2022-11-18T11:54:23;44.05;;;28.85;;
29662;SDS011;16578;53.266;7.920;2022-11-18T11:57:22;33.60;;;20.27;;
29662;SDS011;16578;53.266;7.920;2022-11-18T12:00:01;24.65;;;16.33;;
29662;SDS011;16578;53.266;7.920;2022-11-18T12:05:32;22.70;;;14.15;;
29662;SDS011;16578;53.266;7.920;2022-11-18T12:08:18;24.95;;;14.45;;
29662;SDS011;16578;53.266;7.920;2022-11-18T12:13:58;25.55;;;16.08;;
29662;SDS011;16578;53.266;7.920;2022-11-18T12:16:45;22.10;;;16.05;;
29662;SDS011;16578;53.266;7.920;2022-11-18T12:19:25;24.38;;;15.55;;
29662;SDS011;16578;53.266;7.920;2022-11-18T12:21:52;26.08;;;16.73;;
29662;SDS011;16578;53.266;7.920;2022-11-18T12:24:26;25.80;;;14.43;;
29662;SDS011;16578;53.266;7.920;2022-11-18T12:29:58;23.65;;;14.35;;
29662;SDS011;16578;53.266;7.920;2022-11-18T12:32:35;23.52;;;15.45;;
29662;SDS011;16578;53.266;7.920;2022-11-18T12:40:01;21.17;;;15.10;;
29662;SDS011;16578;53.266;7.920;2022-11-18T12:42:38;23.38;;;14.85;;
29662;SDS011;16578;53.266;7.920;2022-11-18T12:48:25;23.48;;;14.90;;
29662;SDS011;16578;53.266;7.920;2022-11-18T12:50:58;23.77;;;14.98;;
29662;SDS011;16578;53.266;7.920;2022-11-18T12:56:19;21.80;;;13.88;;
29662;SDS011;16578;53.266;7.920;2022-11-18T12:58:51;20.58;;;15.18;;
29662;SDS011;16578;53.266;7.920;2022-11-18T13:01:19;19.88;;;14.90;;
29662;SDS011;16578;53.266;7.920;2022-11-18T13:06:18;19.50;;;13.85;;
29662;SDS011;16578;53.266;7.920;2022-11-18T13:09:00;20.70;;;14.32;;
29662;SDS011;16578;53.266;7.920;2022-11-18T13:11:28;20.73;;;15.43;;
29662;SDS011;16578;53.266;7.920;2022-11-18T13:17:22;20.15;;;13.88;;
29662;SDS011;16578;53.266;7.920;2022-11-18T13:25:44;16.08;;;10.73;;
29662;SDS011;16578;53.266;7.920;2022-11-18T13:33:40;19.98;;;12.63;;
29662;SDS011;16578;53.266;7.920;2022-11-18T13:36:16;23.17;;;14.43;;
29662;SDS011;16578;53.266;7.920;2022-11-18T13:38:58;20.25;;;13.93;;
29662;SDS011;16578;53.266;7.920;2022-11-18T13:41:31;19.48;;;13.55;;
29662;SDS011;16578;53.266;7.920;2022-11-18T13:44:11;21.27;;;14.90;;
29662;SDS011;16578;53.266;7.920;2022-11-18T13:46:47;21.90;;;15.10;;
29662;SDS011;16578;53.266;7.920;2022-11-18T13:49:45;21.17;;;15.55;;
29662;SDS011;16578;53.266;7.920;2022-11-18T13:52:53;21.17;;;14.30;;
29662;SDS011;16578;53.266;7.920;2022-11-18T13:55:49;22.70;;;15.55;;
29662;SDS011;16578;53.266;7.920;2022-11-18T14:00:43;24.02;;;16.38;;
29662;SDS011;16578;53.266;7.920;2022-11-18T14:03:24;22.58;;;16.48;;
29662;SDS011;16578;53.266;7.920;2022-11-18T14:05:54;23.65;;;16.33;;
29662;SDS011;16578;53.266;7.920;2022-11-18T14:08:30;22.88;;;14.80;;
29662;SDS011;16578;53.266;7.920;2022-11-18T14:10:57;23.23;;;15.15;;
29662;SDS011;16578;53.266;7.920;2022-11-18T14:13:28;21.88;;;14.05;;
29662;SDS011;16578;53.266;7.920;2022-11-18T14:15:54;21.50;;;13.43;;
29662;SDS011;16578;53.266;7.920;2022-11-18T14:18:27;25.08;;;14.93;;
29662;SDS011;16578;53.266;7.920;2022-11-18T14:20:54;21.60;;;14.63;;
29662;SDS011;16578;53.266;7.920;2022-11-18T14:23:21;21.25;;;14.93;;
29662;SDS011;16578;53.266;7.920;2022-11-18T14:25:54;24.45;;;15.50;;
29662;SDS011;16578;53.266;7.920;2022-11-18T14:28:23;22.02;;;17.08;;
29662;SDS011;16578;53.266;7.920;2022-11-18T14:30:56;25.70;;;17.17;;
29662;SDS011;16578;53.266;7.920;2022-11-18T14:33:24;24.92;;;17.52;;
29662;SDS011;16578;53.266;7.920;2022-11-18T14:35:57;23.00;;;16.50;;
29662;SDS011;16578;53.266;7.920;2022-11-18T14:38:29;24.45;;;17.23;;
29662;SDS011;16578;53.266;7.920;2022-11-18T14:40:59;23.58;;;16.33;;
29662;SDS011;16578;53.266;7.920;2022-11-18T14:43:27;24.85;;;16.70;;
29662;SDS011;16578;53.266;7.920;2022-11-18T14:45:58;22.58;;;16.27;;
29662;SDS011;16578;53.266;7.920;2022-11-18T14:48:40;24.40;;;16.73;;
29662;SDS011;16578;53.266;7.920;2022-11-18T14:51:09;26.63;;;17.10;;
29662;SDS011;16578;53.266;7.920;2022-11-18T14:53:36;24.50;;;18.30;;
29662;SDS011;16578;53.266;7.920;2022-11-18T14:56:01;23.77;;;17.02;;
29662;SDS011;16578;53.266;7.920;2022-11-18T14:58:28;26.10;;;16.38;;
29662;SDS011;16578;53.266;7.920;2022-11-18T15:00:53;24.85;;;15.75;;
29662;SDS011;16578;53.266;7.920;2022-11-18T15:03:19;22.90;;;16.45;;
29662;SDS011;16578;53.266;7.920;2022-11-18T15:05:44;25.55;;;16.17;;
29662;SDS011;16578;53.266;7.920;2022-11-18T15:08:10;21.05;;;14.10;;
29662;SDS011;16578;53.266;7.920;2022-11-18T15:10:36;23.58;;;17.38;;
29662;SDS011;16578;53.266;7.920;2022-11-18T15:13:01;26.13;;;18.70;;
29662;SDS011;16578;53.266;7.920;2022-11-18T15:15:27;25.27;;;17.25;;
29662;SDS011;16578;53.266;7.920;2022-11-18T15:17:53;25.75;;;17.98;;
29662;SDS011;16578;53.266;7.920;2022-11-18T15:20:19;26.63;;;19.67;;
29662;SDS011;16578;53.266;7.920;2022-11-18T15:22:46;27.92;;;18.25;;
29662;SDS011;16578;53.266;7.920;2022-11-18T15:25:12;28.27;;;19.17;;
29662;SDS011;16578;53.266;7.920;2022-11-18T15:27:38;25.17;;;16.98;;
29662;SDS011;16578;53.266;7.920;2022-11-18T15:30:03;25.95;;;18.88;;
29662;SDS011;16578;53.266;7.920;2022-11-18T15:32:30;24.33;;;17.08;;
29662;SDS011;16578;53.266;7.920;2022-11-18T15:34:55;27.60;;;18.85;;
29662;SDS011;16578;53.266;7.920;2022-11-18T15:37:21;26.20;;;16.95;;
29662;SDS011;16578;53.266;7.920;2022-11-18T15:39:47;28.13;;;16.70;;
29662;SDS011;16578;53.266;7.920;2022-11-18T15:42:14;27.38;;;15.02;;
29662;SDS011;16578;53.266;7.920;2022-11-18T15:44:41;22.13;;;15.32;;
29662;SDS011;16578;53.266;7.920;2022-11-18T15:47:07;28.63;;;18.00;;
29662;SDS011;16578;53.266;7.920;2022-11-18T15:49:33;27.80;;;17.73;;
29662;SDS011;16578;53.266;7.920;2022-11-18T15:51:58;28.40;;;19.38;;
29662;SDS011;16578;53.266;7.920;2022-11-18T15:54:24;24.85;;;15.55;;
29662;SDS011;16578;53.266;7.920;2022-11-18T15:56:50;27.27;;;17.05;;
29662;SDS011;16578;53.266;7.920;2022-11-18T15:59:15;27.25;;;18.40;;
29662;SDS011;16578;53.266;7.920;2022-11-18T16:01:42;26.67;;;18.33;;
29662;SDS011;16578;53.266;7.920;2022-11-18T16:04:09;26.90;;;18.58;;
29662;SDS011;16578;53.266;7.920;2022-11-18T16:06:37;26.00;;;18.47;;
29662;SDS011;16578;53.266;7.920;2022-11-18T16:09:03;27.20;;;18.15;;
29662;SDS011;16578;53.266;7.920;2022-11-18T16:11:30;27.10;;;17.05;;
29662;SDS011;16578;53.266;7.920;2022-11-18T16:14:15;23.55;;;15.75;;
29662;SDS011;16578;53.266;7.920;2022-11-18T16:16:42;25.27;;;16.07;;
29662;SDS011;16578;53.266;7.920;2022-11-18T16:19:10;26.13;;;15.63;;
29662;SDS011;16578;53.266;7.920;2022-11-18T16:21:38;22.67;;;15.15;;
29662;SDS011;16578;53.266;7.920;2022-11-18T16:24:05;23.55;;;14.48;;
29662;SDS011;16578;53.266;7.920;2022-11-18T16:26:33;23.97;;;17.10;;
29662;SDS011;16578;53.266;7.920;2022-11-18T16:28:59;25.88;;;18.02;;
29662;SDS011;16578;53.266;7.920;2022-11-18T16:31:25;25.35;;;17.52;;
29662;SDS011;16578;53.266;7.920;2022-11-18T16:34:11;25.35;;;16.15;;